createdAt,value
2022-11-16T00:01:43.354Z,24.43
2022-11-16T00:04:12.932Z,26.37
2022-11-16T00:06:41.044Z,26.33
2022-11-16T00:09:25.588Z,22.87
2022-11-16T00:11:55.963Z,25.13
2022-11-16T00:14:27.764Z,24.30
2022-11-16T00:16:55.937Z,21.60
2022-11-16T00:19:24.147Z,25.67
2022-11-16T00:21:52.254Z,22.80
2022-11-16T00:24:21.255Z,22.00
2022-11-16T00:26:49.932Z,24.23
2022-11-16T00:29:19.965Z,23.63
2022-11-16T00:31:49.944Z,22.27
2022-11-16T00:34:18.736Z,24.33
2022-11-16T00:36:46.900Z,22.90
2022-11-16T00:39:16.156Z,22.20
2022-11-16T00:41:44.745Z,24.47
2022-11-16T00:44:13.110Z,23.97
2022-11-16T00:46:41.154Z,23.80
2022-11-16T00:49:10.783Z,24.27
2022-11-16T00:51:38.957Z,21.53
2022-11-16T00:54:09.989Z,24.60
2022-11-16T00:56:38.857Z,21.60
2022-11-16T00:59:07.710Z,23.90
2022-11-16T01:01:35.660Z,21.73
2022-11-16T01:04:03.589Z,22.63
2022-11-16T01:06:32.832Z,22.13
2022-11-16T01:09:02.057Z,24.00
2022-11-16T01:11:47.365Z,22.50
2022-11-16T01:14:15.280Z,21.00
2022-11-16T01:16:44.667Z,24.00
2022-11-16T01:19:12.592Z,21.80
2022-11-16T01:21:41.832Z,21.63
2022-11-16T01:24:09.754Z,22.10
2022-11-16T01:26:37.639Z,21.20
2022-11-16T01:29:05.865Z,21.33
2022-11-16T01:31:38.146Z,22.43
2022-11-16T01:34:06.520Z,20.80
2022-11-16T01:36:36.604Z,23.40
2022-11-16T01:39:06.234Z,21.00
2022-11-16T01:41:45.585Z,20.23
2022-11-16T01:44:52.194Z,23.27
2022-11-16T01:47:20.319Z,22.13
2022-11-16T01:49:50.982Z,22.40
2022-11-16T01:52:30.730Z,21.77
2022-11-16T01:55:00.401Z,23.40
2022-11-16T01:57:36.627Z,22.13
2022-11-16T02:00:10.470Z,24.03
2022-11-16T02:02:54.738Z,23.10
2022-11-16T02:05:56.552Z,21.20
2022-11-16T02:08:53.306Z,20.20
2022-11-16T02:11:58.623Z,23.10
2022-11-16T02:14:39.220Z,20.83
2022-11-16T02:17:12.038Z,21.70
2022-11-16T02:20:00.103Z,21.83
2022-11-16T02:22:41.863Z,20.70
2022-11-16T02:25:14.911Z,21.77
2022-11-16T02:28:15.304Z,21.00
2022-11-16T02:30:46.335Z,21.77
2022-11-16T02:33:18.207Z,22.63
2022-11-16T02:35:48.493Z,22.13
2022-11-16T02:38:18.691Z,23.43
2022-11-16T02:40:49.497Z,24.17
2022-11-16T02:43:26.725Z,21.90
2022-11-16T02:45:59.791Z,21.77
2022-11-16T02:48:32.692Z,21.20
2022-11-16T02:51:01.797Z,23.00
2022-11-16T02:53:34.007Z,22.40
2022-11-16T02:56:02.112Z,21.83
2022-11-16T02:58:30.590Z,22.47
2022-11-16T03:01:03.239Z,19.80
2022-11-16T03:03:36.411Z,19.50
2022-11-16T03:06:08.664Z,19.40
2022-11-16T03:08:40.033Z,21.17
2022-11-16T03:11:29.785Z,21.87
2022-11-16T03:14:03.161Z,18.90
2022-11-16T03:16:36.581Z,20.07
2022-11-16T03:19:06.695Z,19.50
2022-11-16T03:21:39.289Z,21.23
2022-11-16T03:24:08.195Z,20.07
2022-11-16T03:26:52.022Z,18.23
2022-11-16T03:29:25.585Z,21.93
2022-11-16T03:31:59.896Z,20.70
2022-11-16T03:34:30.738Z,22.67
2022-11-16T03:37:00.361Z,22.07
2022-11-16T03:39:32.491Z,23.40
2022-11-16T03:42:02.109Z,23.50
2022-11-16T03:44:30.459Z,21.37
2022-11-16T03:46:59.723Z,24.13
2022-11-16T03:49:31.021Z,22.50
2022-11-16T03:51:59.489Z,24.77
2022-11-16T03:54:27.430Z,24.63
2022-11-16T03:56:55.311Z,27.00
2022-11-16T03:59:24.081Z,25.97
2022-11-16T04:01:52.568Z,27.73
2022-11-16T04:04:39.572Z,25.20
2022-11-16T04:07:26.663Z,29.10
2022-11-16T04:10:12.445Z,28.63
2022-11-16T04:13:02.292Z,28.60
2022-11-16T04:15:47.474Z,28.00
2022-11-16T04:18:33.173Z,26.80
2022-11-16T04:21:20.543Z,27.53
2022-11-16T04:24:06.326Z,28.13
2022-11-16T04:26:52.134Z,24.40
2022-11-16T04:29:20.365Z,27.60
2022-11-16T04:32:05.771Z,28.00
2022-11-16T04:34:51.217Z,28.80
2022-11-16T04:37:37.956Z,28.33
2022-11-16T04:40:08.484Z,30.27
2022-11-16T04:42:36.741Z,31.50
2022-11-16T04:45:23.611Z,27.30
2022-11-16T04:47:54.188Z,30.40
2022-11-16T04:50:26.719Z,30.33
2022-11-16T04:52:56.475Z,31.40
2022-11-16T04:55:24.418Z,32.53
2022-11-16T04:57:52.460Z,30.53
2022-11-16T05:00:22.698Z,32.53
2022-11-16T05:02:51.213Z,30.10
2022-11-16T05:05:19.382Z,24.70
2022-11-16T05:07:49.193Z,29.07
2022-11-16T05:10:24.752Z,31.53
2022-11-16T05:12:54.036Z,28.40
2022-11-16T05:15:23.297Z,30.50
2022-11-16T05:17:54.778Z,28.73
2022-11-16T05:20:42.769Z,28.80
2022-11-16T05:23:30.894Z,31.27
2022-11-16T05:26:05.154Z,30.30
2022-11-16T05:28:34.092Z,29.57
2022-11-16T05:31:03.152Z,31.40
2022-11-16T05:33:32.705Z,29.10
2022-11-16T05:36:00.688Z,26.60
2022-11-16T05:38:28.643Z,26.57
2022-11-16T05:40:59.477Z,29.30
2022-11-16T05:43:30.286Z,28.27
2022-11-16T05:46:24.683Z,27.00
2022-11-16T05:48:52.916Z,27.83
2022-11-16T05:51:21.472Z,25.20
2022-11-16T05:53:49.616Z,27.37
2022-11-16T05:56:22.156Z,28.10
2022-11-16T05:58:52.342Z,28.10
2022-11-16T06:01:21.287Z,27.60
2022-11-16T06:03:50.641Z,27.17
2022-11-16T06:06:19.937Z,27.57
2022-11-16T06:08:48.934Z,29.97
2022-11-16T06:11:22.300Z,29.23
2022-11-16T06:13:50.260Z,29.90
2022-11-16T06:16:19.885Z,26.80
2022-11-16T06:18:48.783Z,27.63
2022-11-16T06:21:19.467Z,29.67
2022-11-16T06:23:49.209Z,29.80
2022-11-16T06:26:18.756Z,28.47
2022-11-16T06:28:47.598Z,30.13
2022-11-16T06:31:15.582Z,29.10
2022-11-16T06:33:44.907Z,28.33
2022-11-16T06:36:19.696Z,29.20
2022-11-16T06:38:49.591Z,29.40
2022-11-16T06:41:18.155Z,30.23
2022-11-16T06:43:49.690Z,30.07
2022-11-16T06:46:20.653Z,31.50
2022-11-16T06:48:50.405Z,28.77
2022-11-16T06:51:19.340Z,31.57
2022-11-16T06:53:48.327Z,28.70
2022-11-16T06:56:17.073Z,27.60
2022-11-16T06:58:53.231Z,29.93
2022-11-16T07:01:22.137Z,31.40
2022-11-16T07:03:53.029Z,29.67
2022-11-16T07:06:20.982Z,29.50
2022-11-16T07:08:49.099Z,28.00
2022-11-16T07:11:21.269Z,30.17
2022-11-16T07:13:49.423Z,32.63
2022-11-16T07:16:17.931Z,31.63
2022-11-16T07:18:56.379Z,30.40
2022-11-16T07:21:24.844Z,32.70
2022-11-16T07:23:55.911Z,27.07
2022-11-16T07:26:24.234Z,32.10
2022-11-16T07:28:59.225Z,31.17
2022-11-16T07:31:27.809Z,31.20
2022-11-16T07:34:32.676Z,34.30
2022-11-16T07:37:09.871Z,30.27
2022-11-16T07:39:38.329Z,33.60
2022-11-16T07:42:11.787Z,29.27
2022-11-16T07:44:51.037Z,30.73
2022-11-16T07:47:19.938Z,30.03
2022-11-16T07:49:49.485Z,32.13
2022-11-16T07:52:20.562Z,33.47
2022-11-16T07:54:58.081Z,29.63
2022-11-16T07:57:28.216Z,31.87
2022-11-16T07:59:59.199Z,33.70
2022-11-16T08:02:28.849Z,32.23
2022-11-16T08:04:58.189Z,33.53
2022-11-16T08:07:28.951Z,31.70
2022-11-16T08:09:57.882Z,34.30
2022-11-16T08:12:26.399Z,29.83
2022-11-16T08:14:55.735Z,29.30
2022-11-16T08:17:25.014Z,34.83
2022-11-16T08:19:54.574Z,29.20
2022-11-16T08:22:24.628Z,29.50
2022-11-16T08:24:53.581Z,30.37
2022-11-16T08:27:21.773Z,31.57
2022-11-16T08:29:53.461Z,30.33
2022-11-16T08:32:22.361Z,30.17
2022-11-16T08:34:50.375Z,28.60
2022-11-16T08:37:18.615Z,32.20
2022-11-16T08:39:48.462Z,32.57
2022-11-16T08:42:16.341Z,30.30
2022-11-16T08:44:48.120Z,31.00
2022-11-16T08:47:18.906Z,32.33
2022-11-16T08:49:55.149Z,34.90
2022-11-16T08:52:26.080Z,29.77
2022-11-16T08:55:31.183Z,26.60
2022-11-16T08:57:59.186Z,29.17
2022-11-16T09:04:39.951Z,29.17
2022-11-16T09:07:07.909Z,30.40
2022-11-16T09:09:35.842Z,28.87
2022-11-16T09:12:05.520Z,27.80
2022-11-16T09:14:33.401Z,27.30
2022-11-16T09:17:01.302Z,28.90
2022-11-16T09:19:29.203Z,28.23
2022-11-16T09:21:57.106Z,25.70
2022-11-16T09:24:24.985Z,26.57
2022-11-16T09:26:52.846Z,24.20
2022-11-16T09:29:22.091Z,26.70
2022-11-16T09:31:49.955Z,25.50
2022-11-16T09:34:17.778Z,22.53
2022-11-16T09:36:45.676Z,24.00
2022-11-16T09:39:30.142Z,22.63
2022-11-16T09:42:06.613Z,23.03
2022-11-16T09:44:50.174Z,22.27
2022-11-16T09:47:21.646Z,21.40
2022-11-16T09:49:55.698Z,19.53
2022-11-16T09:52:29.965Z,18.87
2022-11-16T09:54:59.295Z,19.07
2022-11-16T09:57:30.216Z,16.77
2022-11-16T10:00:03.511Z,17.80
2022-11-16T10:02:44.028Z,16.73
2022-11-16T10:05:17.884Z,17.63
2022-11-16T10:07:48.380Z,13.90
2022-11-16T10:10:17.455Z,14.50
2022-11-16T10:12:47.400Z,11.67
2022-11-16T10:15:28.294Z,11.27
2022-11-16T10:18:14.078Z,12.60
2022-11-16T10:20:50.439Z,11.13
2022-11-16T10:23:26.351Z,12.40
2022-11-16T10:25:56.324Z,11.67
2022-11-16T10:28:45.044Z,11.33
2022-11-16T10:31:19.868Z,13.63
2022-11-16T10:33:49.888Z,10.90
2022-11-16T10:36:18.036Z,12.17
2022-11-16T10:38:46.589Z,12.83
2022-11-16T10:41:19.434Z,12.47
2022-11-16T10:43:47.419Z,12.23
2022-11-16T10:46:22.070Z,11.20
2022-11-16T10:48:56.795Z,12.60
2022-11-16T10:51:24.703Z,9.90
2022-11-16T10:53:55.703Z,14.00
2022-11-16T10:56:26.096Z,12.13
2022-11-16T10:58:56.583Z,13.37
2022-11-16T11:01:37.576Z,12.90
2022-11-16T11:04:17.343Z,14.40
2022-11-16T11:06:46.281Z,13.53
2022-11-16T11:09:23.897Z,14.10
2022-11-16T11:12:20.576Z,13.30
2022-11-16T11:15:04.010Z,13.93
2022-11-16T11:17:35.664Z,12.90
2022-11-16T11:20:05.653Z,15.20
2022-11-16T11:22:34.499Z,14.60
2022-11-16T11:25:03.468Z,13.17
2022-11-16T11:27:34.904Z,14.83
2022-11-16T11:30:03.839Z,9.67
2022-11-16T11:32:36.198Z,14.70
2022-11-16T11:35:06.435Z,13.80
2022-11-16T11:37:35.957Z,14.60
2022-11-16T11:40:22.533Z,15.00
2022-11-16T11:42:57.120Z,14.70
2022-11-16T11:45:29.283Z,14.27
2022-11-16T11:48:02.491Z,14.37
2022-11-16T11:50:51.639Z,14.53
2022-11-16T11:53:38.558Z,14.50
2022-11-16T11:56:07.143Z,12.90
2022-11-16T11:58:36.646Z,15.73
2022-11-16T12:01:25.717Z,14.87
2022-11-16T12:04:18.877Z,14.37
2022-11-16T12:06:52.315Z,13.40
2022-11-16T12:09:30.266Z,13.20
2022-11-16T12:12:11.806Z,14.03
2022-11-16T12:15:00.050Z,12.70
2022-11-16T12:17:34.418Z,13.70
2022-11-16T12:20:16.426Z,15.50
2022-11-16T12:22:59.739Z,14.10
2022-11-16T12:25:38.495Z,12.60
2022-11-16T12:28:16.021Z,13.10
2022-11-16T12:30:56.576Z,13.37
2022-11-16T12:33:34.320Z,13.37
2022-11-16T12:36:09.769Z,14.00
2022-11-16T12:38:46.511Z,13.80
2022-11-16T12:41:47.660Z,13.47
2022-11-16T12:44:20.822Z,11.53
2022-11-16T12:46:55.004Z,13.70
2022-11-16T12:49:48.762Z,14.13
2022-11-16T12:52:34.065Z,13.40
2022-11-16T12:55:26.765Z,14.37
2022-11-16T12:58:11.620Z,14.00
2022-11-16T13:00:51.617Z,13.73
2022-11-16T13:03:22.016Z,15.17
2022-11-16T13:05:59.122Z,11.40
2022-11-16T13:08:39.494Z,13.27
2022-11-16T13:11:13.001Z,13.17
2022-11-16T13:13:41.819Z,14.17
2022-11-16T13:16:10.789Z,14.37
2022-11-16T13:18:41.392Z,15.27
2022-11-16T13:21:15.815Z,13.63
2022-11-16T13:23:53.649Z,12.30
2022-11-16T13:26:24.320Z,14.03
2022-11-16T13:28:57.839Z,13.40
2022-11-16T13:31:29.896Z,14.00
2022-11-16T13:34:00.250Z,13.13
2022-11-16T13:36:46.237Z,13.40
2022-11-16T13:39:21.952Z,13.53
2022-11-16T13:41:51.157Z,13.67
2022-11-16T13:44:28.384Z,12.00
2022-11-16T13:46:59.684Z,14.30
2022-11-16T13:49:31.763Z,12.73
2022-11-16T13:52:17.292Z,13.10
2022-11-16T13:54:53.517Z,11.73
2022-11-16T13:57:24.997Z,12.50
2022-11-16T13:59:58.203Z,13.83
2022-11-16T14:02:31.952Z,12.90
2022-11-16T14:05:00.807Z,12.40
2022-11-16T14:07:37.262Z,12.77
2022-11-16T14:10:09.565Z,9.40
2022-11-16T14:12:58.512Z,13.53
2022-11-16T14:15:32.127Z,11.43
2022-11-16T14:18:23.110Z,11.63
2022-11-16T14:20:57.007Z,14.07
2022-11-16T14:23:31.887Z,10.57
2022-11-16T14:26:10.911Z,11.70
2022-11-16T14:29:11.622Z,11.63
2022-11-16T14:31:51.498Z,12.83
2022-11-16T14:34:22.074Z,10.57
2022-11-16T14:36:50.730Z,11.70
2022-11-16T14:39:26.457Z,13.77
2022-11-16T14:41:56.376Z,9.83
2022-11-16T14:44:27.800Z,11.13
2022-11-16T14:46:55.802Z,13.70
2022-11-16T14:49:25.927Z,10.60
2022-11-16T14:51:56.291Z,11.97
2022-11-16T14:54:30.112Z,11.23
2022-11-16T14:57:01.125Z,11.17
2022-11-16T14:59:29.617Z,12.10
2022-11-16T15:01:57.700Z,10.57
2022-11-16T15:04:26.674Z,11.80
2022-11-16T15:06:57.762Z,10.83
2022-11-16T15:09:28.838Z,12.50
2022-11-16T15:12:16.294Z,11.43
2022-11-16T15:14:48.748Z,14.00
2022-11-16T15:17:18.989Z,11.17
2022-11-16T15:19:55.344Z,11.00
2022-11-16T15:22:23.825Z,12.67
2022-11-16T15:24:55.482Z,12.90
2022-11-16T15:27:32.632Z,11.87
2022-11-16T15:30:01.734Z,12.63
2022-11-16T15:32:31.375Z,11.77
2022-11-16T15:35:05.014Z,12.43
2022-11-16T15:37:33.485Z,11.87
2022-11-16T15:40:03.504Z,13.33
2022-11-16T15:42:32.833Z,11.10
2022-11-16T15:45:01.222Z,13.23
2022-11-16T15:47:29.279Z,14.50
2022-11-16T15:49:57.180Z,10.43
2022-11-16T15:52:44.695Z,11.93
2022-11-16T15:55:40.017Z,12.63
2022-11-16T15:58:15.135Z,11.33
2022-11-16T16:00:43.326Z,11.30
2022-11-16T16:03:20.462Z,13.37
2022-11-16T16:05:48.782Z,12.30
2022-11-16T16:08:31.294Z,12.57
2022-11-16T16:11:04.970Z,10.17
2022-11-16T16:13:35.959Z,9.47
2022-11-16T16:16:23.062Z,10.93
2022-11-16T16:18:51.131Z,11.80
2022-11-16T16:21:19.189Z,11.17
2022-11-16T16:23:48.386Z,9.10
2022-11-16T16:26:16.524Z,12.47
2022-11-16T16:28:46.067Z,11.60
2022-11-16T16:31:14.374Z,10.03
2022-11-16T16:33:42.501Z,11.43
2022-11-16T16:36:11.670Z,9.83
2022-11-16T16:38:39.808Z,11.10
2022-11-16T16:41:08.062Z,11.37
2022-11-16T16:43:36.301Z,9.97
2022-11-16T16:46:06.293Z,9.43
2022-11-16T16:48:34.763Z,9.40
2022-11-16T16:51:02.977Z,9.67
2022-11-16T16:53:30.929Z,9.10
2022-11-16T16:55:58.852Z,8.40
2022-11-16T16:58:26.713Z,9.77
2022-11-16T17:01:00.885Z,8.90
2022-11-16T17:03:31.720Z,8.57
2022-11-16T17:06:01.774Z,9.30
2022-11-16T17:08:34.275Z,10.53
2022-11-16T17:11:02.351Z,9.10
2022-11-16T17:13:30.181Z,10.73
2022-11-16T17:15:58.211Z,9.37
2022-11-16T17:18:26.076Z,8.43
2022-11-16T17:20:55.270Z,9.07
2022-11-16T17:23:23.197Z,9.40
2022-11-16T17:25:51.159Z,9.03
2022-11-16T17:28:18.970Z,7.60
2022-11-16T17:30:46.840Z,7.20
2022-11-16T17:33:14.781Z,6.63
2022-11-16T17:35:42.895Z,7.13
2022-11-16T17:38:13.070Z,7.20
2022-11-16T17:40:41.334Z,9.23
2022-11-16T17:43:09.260Z,8.50
2022-11-16T17:45:37.226Z,7.80
2022-11-16T17:48:06.587Z,8.20
2022-11-16T17:50:34.529Z,8.07
2022-11-16T17:53:02.457Z,8.47
2022-11-16T17:55:31.772Z,9.10
2022-11-16T17:57:59.683Z,7.23
2022-11-16T18:00:27.574Z,5.70
2022-11-16T18:02:55.464Z,7.27
2022-11-16T18:05:23.330Z,7.83
2022-11-16T18:07:51.207Z,7.27
2022-11-16T18:10:19.586Z,8.53
2022-11-16T18:12:48.911Z,8.63
2022-11-16T18:15:33.169Z,7.17
2022-11-16T18:18:02.798Z,6.83
2022-11-16T18:20:31.108Z,7.30
2022-11-16T18:22:58.992Z,6.40
2022-11-16T18:25:26.910Z,6.80
2022-11-16T18:27:56.507Z,7.87
2022-11-16T18:30:25.231Z,6.30
2022-11-16T18:32:53.160Z,6.80
2022-11-16T18:35:21.041Z,6.50
2022-11-16T18:37:48.951Z,6.80
2022-11-16T18:40:18.021Z,5.80
2022-11-16T18:42:45.905Z,7.10
2022-11-16T18:45:15.320Z,7.47
2022-11-16T18:47:43.232Z,6.33
2022-11-16T18:50:18.986Z,6.50
2022-11-16T18:52:49.301Z,6.50
2022-11-16T18:55:17.192Z,7.03
2022-11-16T18:57:45.084Z,7.13
2022-11-16T19:00:16.204Z,6.27
2022-11-16T19:02:44.149Z,7.40
2022-11-16T19:05:12.029Z,6.43
2022-11-16T19:07:39.967Z,7.50
2022-11-16T19:10:09.250Z,6.77
2022-11-16T19:12:37.139Z,6.60
2022-11-16T19:15:05.782Z,6.13
2022-11-16T19:17:48.022Z,6.40
2022-11-16T19:20:22.811Z,6.63
2022-11-16T19:22:50.658Z,6.20
2022-11-16T19:25:18.487Z,7.13
2022-11-16T19:27:46.364Z,6.77
2022-11-16T19:30:14.332Z,5.67
2022-11-16T19:32:43.533Z,7.67
2022-11-16T19:35:12.037Z,6.50
2022-11-16T19:37:40.004Z,6.40
2022-11-16T19:40:09.273Z,7.03
2022-11-16T19:42:37.635Z,6.50
2022-11-16T19:45:06.603Z,6.43
2022-11-16T19:47:34.689Z,7.50
2022-11-16T19:50:04.086Z,6.00
2022-11-16T19:52:32.177Z,7.53
2022-11-16T19:55:00.303Z,6.80
2022-11-16T19:57:28.931Z,6.47
2022-11-16T19:59:56.965Z,5.30
2022-11-16T20:02:25.038Z,6.47
2022-11-16T20:04:53.376Z,6.23
2022-11-16T20:07:23.553Z,5.90
2022-11-16T20:09:53.570Z,5.70
2022-11-16T20:12:21.666Z,5.60
2022-11-16T20:14:49.725Z,5.83
2022-11-16T20:17:17.834Z,5.87
2022-11-16T20:19:45.832Z,6.87
2022-11-16T20:22:13.848Z,5.97
2022-11-16T20:24:43.314Z,6.87
2022-11-16T20:27:11.313Z,5.00
2022-11-16T20:29:39.190Z,6.10
2022-11-16T20:32:07.210Z,7.00
2022-11-16T20:34:35.346Z,5.60
2022-11-16T20:37:03.498Z,7.20
2022-11-16T20:39:31.619Z,7.40
2022-11-16T20:42:00.970Z,6.60
2022-11-16T20:44:30.039Z,6.80
2022-11-16T20:46:58.019Z,6.60
2022-11-16T20:49:26.058Z,6.90
2022-11-16T20:51:53.987Z,5.60
2022-11-16T20:54:22.193Z,6.13
2022-11-16T20:56:50.554Z,7.27
2022-11-16T20:59:20.172Z,5.97
2022-11-16T21:01:48.857Z,6.20
2022-11-16T21:04:17.206Z,5.23
2022-11-16T21:06:45.320Z,5.47
2022-11-16T21:09:15.470Z,5.57
2022-11-16T21:12:06.051Z,4.90
2022-11-16T21:14:35.369Z,4.63
2022-11-16T21:17:03.269Z,12.73
2022-11-16T21:19:31.147Z,5.27
2022-11-16T21:21:58.956Z,5.60
2022-11-16T21:24:28.344Z,5.70
2022-11-16T21:26:56.151Z,5.90
2022-11-16T21:29:39.998Z,6.03
2022-11-16T21:32:09.284Z,5.70
2022-11-16T21:34:40.092Z,5.03
2022-11-16T21:37:08.244Z,5.40
2022-11-16T21:39:36.093Z,6.03
2022-11-16T21:42:03.976Z,5.77
2022-11-16T21:44:41.836Z,4.10
2022-11-16T21:47:11.524Z,5.37
2022-11-16T21:50:02.405Z,4.30
2022-11-16T21:52:28.776Z,4.50
2022-11-16T21:55:00.326Z,5.33
2022-11-16T21:57:28.897Z,4.60
2022-11-16T21:59:56.798Z,5.30
2022-11-16T22:02:26.010Z,5.50
2022-11-16T22:05:11.303Z,4.30
2022-11-16T22:07:41.379Z,4.80
2022-11-16T22:10:11.122Z,4.50
2022-11-16T22:12:39.439Z,4.60
2022-11-16T22:15:08.392Z,4.90
2022-11-16T22:17:37.596Z,5.07
2022-11-16T22:20:06.386Z,4.47
2022-11-16T22:22:34.236Z,6.00
2022-11-16T22:25:02.059Z,5.53
2022-11-16T22:27:29.959Z,5.67
2022-11-16T22:29:57.859Z,5.30
2022-11-16T22:32:25.803Z,5.27
2022-11-16T22:34:55.072Z,5.07
2022-11-16T22:37:22.945Z,5.67
2022-11-16T22:39:50.812Z,4.33
2022-11-16T22:42:18.685Z,5.37
2022-11-16T22:44:46.484Z,5.23
2022-11-16T22:47:14.490Z,5.60
2022-11-16T22:49:42.662Z,5.30
2022-11-16T22:52:12.373Z,5.67
2022-11-16T22:54:40.528Z,5.00
2022-11-16T22:57:08.378Z,4.93
2022-11-16T22:59:36.327Z,5.20
2022-11-16T23:02:05.825Z,5.20
2022-11-16T23:04:33.755Z,5.80
2022-11-16T23:07:01.721Z,4.87
2022-11-16T23:09:31.984Z,5.47
2022-11-16T23:12:17.386Z,4.70
2022-11-16T23:15:02.439Z,5.67
2022-11-16T23:17:30.383Z,5.20
2022-11-16T23:20:17.770Z,6.60
2022-11-16T23:23:03.735Z,6.10
2022-11-16T23:25:50.981Z,6.70
2022-11-16T23:28:20.155Z,5.80
2022-11-16T23:30:48.104Z,7.30
2022-11-16T23:33:16.042Z,7.27
2022-11-16T23:35:44.392Z,6.53
2022-11-16T23:38:14.035Z,5.57
2022-11-16T23:40:43.326Z,7.43
2022-11-16T23:43:29.069Z,6.87
2022-11-16T23:45:56.936Z,6.90
2022-11-16T23:48:24.803Z,6.83
2022-11-16T23:50:52.620Z,7.47
2022-11-16T23:53:20.445Z,5.90
2022-11-16T23:55:52.879Z,7.40
2022-11-16T23:58:20.716Z,7.47
